sensor_id;sensor_type;location;lat;lon;timestamp;pressure;altitude;pressure_sealevel;temperature;humidity
70198;BME280;57582;-34.876;138.628;2023-09-07T00:01:30;100009;;;14.43;71.97
70198;BME280;57582;-34.876;138.628;2023-09-07T00:04:29;100016;;;14.26;72.64
70198;BME280;57582;-34.876;138.628;2023-09-07T00:07:30;100019;;;14.13;72.32
70198;BME280;57582;-34.876;138.628;2023-09-07T00:10:31;100038;;;14.02;71.97
70198;BME280;57582;-34.876;138.628;2023-09-07T00:13:30;100034;;;14.02;71.78
70198;BME280;57582;-34.876;138.628;2023-09-07T00:16:31;100040;;;14.26;71.16
70198;BME280;57582;-34.876;138.628;2023-09-07T00:19:30;100044;;;14.28;70.81
70198;BME280;57582;-34.876;138.628;2023-09-07T00:22:30;100052;;;14.20;71.71
70198;BME280;57582;-34.876;138.628;2023-09-07T00:25:29;100051;;;14.34;70.76
70198;BME280;57582;-34.876;138.628;2023-09-07T00:28:29;100053;;;14.50;70.91
70198;BME280;57582;-34.876;138.628;2023-09-07T00:31:29;100060;;;14.64;70.25
70198;BME280;57582;-34.876;138.628;2023-09-07T00:34:30;100064;;;15.01;69.48
70198;BME280;57582;-34.876;138.628;2023-09-07T00:37:30;100053;;;15.27;68.56
70198;BME280;57582;-34.876;138.628;2023-09-07T00:40:30;100065;;;15.32;67.03
70198;BME280;57582;-34.876;138.628;2023-09-07T00:43:30;100065;;;15.24;67.67
70198;BME280;57582;-34.876;138.628;2023-09-07T00:46:30;100067;;;15.22;67.24
70198;BME280;57582;-34.876;138.628;2023-09-07T00:49:30;100075;;;15.32;66.79
70198;BME280;57582;-34.876;138.628;2023-09-07T00:52:30;100074;;;15.39;66.32
70198;BME280;57582;-34.876;138.628;2023-09-07T00:55:30;100080;;;14.99;66.30
70198;BME280;57582;-34.876;138.628;2023-09-07T00:58:30;100086;;;14.93;66.34
70198;BME280;57582;-34.876;138.628;2023-09-07T01:01:30;100085;;;14.96;66.04
70198;BME280;57582;-34.876;138.628;2023-09-07T01:04:30;100095;;;15.00;64.86
70198;BME280;57582;-34.876;138.628;2023-09-07T01:07:32;100099;;;14.94;64.74
70198;BME280;57582;-34.876;138.628;2023-09-07T01:10:31;100100;;;14.57;66.44
70198;BME280;57582;-34.876;138.628;2023-09-07T01:13:30;100106;;;14.43;67.20
70198;BME280;57582;-34.876;138.628;2023-09-07T01:16:30;100107;;;14.38;67.25
70198;BME280;57582;-34.876;138.628;2023-09-07T01:19:30;100103;;;14.30;68.89
70198;BME280;57582;-34.876;138.628;2023-09-07T01:22:30;100104;;;14.40;68.56
70198;BME280;57582;-34.876;138.628;2023-09-07T01:25:30;100107;;;14.37;69.03
70198;BME280;57582;-34.876;138.628;2023-09-07T01:28:30;100102;;;14.42;68.75
70198;BME280;57582;-34.876;138.628;2023-09-07T01:31:30;100108;;;14.57;67.70
70198;BME280;57582;-34.876;138.628;2023-09-07T01:34:30;100106;;;14.41;65.77
70198;BME280;57582;-34.876;138.628;2023-09-07T01:37:30;100104;;;14.61;67.30
70198;BME280;57582;-34.876;138.628;2023-09-07T01:40:30;100092;;;14.73;65.96
70198;BME280;57582;-34.876;138.628;2023-09-07T01:43:30;100096;;;14.60;65.25
70198;BME280;57582;-34.876;138.628;2023-09-07T01:46:30;100111;;;14.41;65.42
70198;BME280;57582;-34.876;138.628;2023-09-07T01:49:30;100102;;;14.50;65.35
70198;BME280;57582;-34.876;138.628;2023-09-07T01:52:30;100103;;;14.44;65.18
70198;BME280;57582;-34.876;138.628;2023-09-07T01:55:30;100109;;;14.59;65.95
70198;BME280;57582;-34.876;138.628;2023-09-07T01:58:30;100103;;;14.36;66.90
70198;BME280;57582;-34.876;138.628;2023-09-07T02:01:30;100105;;;14.42;66.68
70198;BME280;57582;-34.876;138.628;2023-09-07T02:04:30;100109;;;14.63;66.94
70198;BME280;57582;-34.876;138.628;2023-09-07T02:07:30;100107;;;14.66;66.82
70198;BME280;57582;-34.876;138.628;2023-09-07T02:10:30;100110;;;14.71;65.47
70198;BME280;57582;-34.876;138.628;2023-09-07T02:13:30;100109;;;14.86;64.86
70198;BME280;57582;-34.876;138.628;2023-09-07T02:16:30;100100;;;14.75;65.01
70198;BME280;57582;-34.876;138.628;2023-09-07T02:19:30;100108;;;14.99;64.52
70198;BME280;57582;-34.876;138.628;2023-09-07T02:22:30;100095;;;15.21;64.15
70198;BME280;57582;-34.876;138.628;2023-09-07T02:25:30;100101;;;15.31;62.59
70198;BME280;57582;-34.876;138.628;2023-09-07T02:28:30;100091;;;15.25;59.42
70198;BME280;57582;-34.876;138.628;2023-09-07T02:31:30;100095;;;15.26;58.57
70198;BME280;57582;-34.876;138.628;2023-09-07T02:34:30;100092;;;15.20;59.54
70198;BME280;57582;-34.876;138.628;2023-09-07T02:37:30;100093;;;15.14;60.22
70198;BME280;57582;-34.876;138.628;2023-09-07T02:40:30;100087;;;15.12;59.52
70198;BME280;57582;-34.876;138.628;2023-09-07T02:43:30;100090;;;15.31;59.02
70198;BME280;57582;-34.876;138.628;2023-09-07T02:46:30;100097;;;15.51;58.87
70198;BME280;57582;-34.876;138.628;2023-09-07T02:49:30;100099;;;15.57;59.67
70198;BME280;57582;-34.876;138.628;2023-09-07T02:52:30;100102;;;15.68;59.12
70198;BME280;57582;-34.876;138.628;2023-09-07T02:55:30;100102;;;15.80;58.62
70198;BME280;57582;-34.876;138.628;2023-09-07T02:58:30;100108;;;16.23;57.45
70198;BME280;57582;-34.876;138.628;2023-09-07T03:01:30;100116;;;15.83;57.07
70198;BME280;57582;-34.876;138.628;2023-09-07T03:04:30;100118;;;15.65;56.67
70198;BME280;57582;-34.876;138.628;2023-09-07T03:07:32;100118;;;15.68;56.79
70198;BME280;57582;-34.876;138.628;2023-09-07T03:10:30;100109;;;15.66;57.02
70198;BME280;57582;-34.876;138.628;2023-09-07T03:13:30;100110;;;15.34;57.87
70198;BME280;57582;-34.876;138.628;2023-09-07T03:16:30;100131;;;15.12;62.46
70198;BME280;57582;-34.876;138.628;2023-09-07T03:19:30;100123;;;14.89;61.90
70198;BME280;57582;-34.876;138.628;2023-09-07T03:22:30;100129;;;14.93;62.46
70198;BME280;57582;-34.876;138.628;2023-09-07T03:25:30;100138;;;14.95;62.83
70198;BME280;57582;-34.876;138.628;2023-09-07T03:28:30;100151;;;14.91;61.31
70198;BME280;57582;-34.876;138.628;2023-09-07T03:31:30;100138;;;15.13;61.70
70198;BME280;57582;-34.876;138.628;2023-09-07T03:34:30;100139;;;15.18;58.74
70198;BME280;57582;-34.876;138.628;2023-09-07T03:37:30;100155;;;15.30;57.98
70198;BME280;57582;-34.876;138.628;2023-09-07T03:40:30;100148;;;15.14;58.70
70198;BME280;57582;-34.876;138.628;2023-09-07T03:43:30;100163;;;14.84;59.42
70198;BME280;57582;-34.876;138.628;2023-09-07T03:46:30;100165;;;14.78;56.97
70198;BME280;57582;-34.876;138.628;2023-09-07T03:49:30;100163;;;14.97;57.23
70198;BME280;57582;-34.876;138.628;2023-09-07T03:52:30;100173;;;15.09;55.96
70198;BME280;57582;-34.876;138.628;2023-09-07T03:55:33;100173;;;15.19;55.91
70198;BME280;57582;-34.876;138.628;2023-09-07T03:58:31;100188;;;14.94;56.86
70198;BME280;57582;-34.876;138.628;2023-09-07T04:01:30;100180;;;14.92;58.08
70198;BME280;57582;-34.876;138.628;2023-09-07T04:04:30;100182;;;15.08;58.82
70198;BME280;57582;-34.876;138.628;2023-09-07T04:07:30;100180;;;15.14;56.97
70198;BME280;57582;-34.876;138.628;2023-09-07T04:10:30;100175;;;15.25;57.33
70198;BME280;57582;-34.876;138.628;2023-09-07T04:13:30;100171;;;15.39;58.28
70198;BME280;57582;-34.876;138.628;2023-09-07T04:16:30;100192;;;15.11;56.48
70198;BME280;57582;-34.876;138.628;2023-09-07T04:19:30;100190;;;14.95;55.53
70198;BME280;57582;-34.876;138.628;2023-09-07T04:22:30;100206;;;15.05;54.43
70198;BME280;57582;-34.876;138.628;2023-09-07T04:25:30;100217;;;15.30;54.86
70198;BME280;57582;-34.876;138.628;2023-09-07T04:28:30;100221;;;14.94;54.54
70198;BME280;57582;-34.876;138.628;2023-09-07T04:31:30;100224;;;14.75;54.88
70198;BME280;57582;-34.876;138.628;2023-09-07T04:34:30;100237;;;14.94;55.61
70198;BME280;57582;-34.876;138.628;2023-09-07T04:37:30;100225;;;14.72;53.49
70198;BME280;57582;-34.876;138.628;2023-09-07T04:40:30;100232;;;14.99;52.24
70198;BME280;57582;-34.876;138.628;2023-09-07T04:43:30;100229;;;15.21;51.13
70198;BME280;57582;-34.876;138.628;2023-09-07T04:46:30;100253;;;15.55;51.32
70198;BME280;57582;-34.876;138.628;2023-09-07T04:49:30;100250;;;15.39;51.82
70198;BME280;57582;-34.876;138.628;2023-09-07T04:52:30;100245;;;15.12;51.69
70198;BME280;57582;-34.876;138.628;2023-09-07T04:55:30;100250;;;15.04;49.86
70198;BME280;57582;-34.876;138.628;2023-09-07T04:58:31;100249;;;14.84;50.56
70198;BME280;57582;-34.876;138.628;2023-09-07T05:01:30;100242;;;14.87;51.61
70198;BME280;57582;-34.876;138.628;2023-09-07T05:04:30;100249;;;15.08;49.97
70198;BME280;57582;-34.876;138.628;2023-09-07T05:07:30;100250;;;15.33;50.35
70198;BME280;57582;-34.876;138.628;2023-09-07T05:10:34;100269;;;15.45;50.18
70198;BME280;57582;-34.876;138.628;2023-09-07T05:13:30;100266;;;15.43;49.34
70198;BME280;57582;-34.876;138.628;2023-09-07T05:16:30;100270;;;15.47;50.04
70198;BME280;57582;-34.876;138.628;2023-09-07T05:19:30;100273;;;15.62;50.21
70198;BME280;57582;-34.876;138.628;2023-09-07T05:22:32;100279;;;15.77;49.26
70198;BME280;57582;-34.876;138.628;2023-09-07T05:25:30;100288;;;15.46;49.49
70198;BME280;57582;-34.876;138.628;2023-09-07T05:28:30;100288;;;15.25;49.40
70198;BME280;57582;-34.876;138.628;2023-09-07T05:31:30;100300;;;15.30;50.16
70198;BME280;57582;-34.876;138.628;2023-09-07T05:34:31;100304;;;15.25;49.64
70198;BME280;57582;-34.876;138.628;2023-09-07T05:37:30;100313;;;15.09;49.94
70198;BME280;57582;-34.876;138.628;2023-09-07T05:40:33;100308;;;14.85;50.73
70198;BME280;57582;-34.876;138.628;2023-09-07T05:43:30;100323;;;14.97;50.65
70198;BME280;57582;-34.876;138.628;2023-09-07T05:46:31;100302;;;14.96;49.70
70198;BME280;57582;-34.876;138.628;2023-09-07T05:49:30;100318;;;15.09;47.93
70198;BME280;57582;-34.876;138.628;2023-09-07T05:52:30;100304;;;15.10;46.57
70198;BME280;57582;-34.876;138.628;2023-09-07T05:55:30;100319;;;15.32;46.73
70198;BME280;57582;-34.876;138.628;2023-09-07T05:58:31;100324;;;15.33;46.36
70198;BME280;57582;-34.876;138.628;2023-09-07T06:01:30;100323;;;15.22;47.30
70198;BME280;57582;-34.876;138.628;2023-09-07T06:04:30;100326;;;15.15;47.02
70198;BME280;57582;-34.876;138.628;2023-09-07T06:07:30;100328;;;14.89;48.77
70198;BME280;57582;-34.876;138.628;2023-09-07T06:10:31;100359;;;14.52;48.66
70198;BME280;57582;-34.876;138.628;2023-09-07T06:13:30;100359;;;14.55;48.72
70198;BME280;57582;-34.876;138.628;2023-09-07T06:16:31;100342;;;14.53;46.42
70198;BME280;57582;-34.876;138.628;2023-09-07T06:19:31;100355;;;14.38;47.99
70198;BME280;57582;-34.876;138.628;2023-09-07T06:22:31;100356;;;14.63;47.80
70198;BME280;57582;-34.876;138.628;2023-09-07T06:25:30;100357;;;14.90;47.09
70198;BME280;57582;-34.876;138.628;2023-09-07T06:28:30;100355;;;14.84;45.45
70198;BME280;57582;-34.876;138.628;2023-09-07T06:31:30;100365;;;14.91;43.97
70198;BME280;57582;-34.876;138.628;2023-09-07T06:34:31;100367;;;14.99;44.38
70198;BME280;57582;-34.876;138.628;2023-09-07T06:37:30;100371;;;14.75;45.83
70198;BME280;57582;-34.876;138.628;2023-09-07T06:40:30;100386;;;14.53;47.24
70198;BME280;57582;-34.876;138.628;2023-09-07T06:43:30;100388;;;14.56;48.01
70198;BME280;57582;-34.876;138.628;2023-09-07T06:46:31;100392;;;14.88;47.94
70198;BME280;57582;-34.876;138.628;2023-09-07T06:49:30;100402;;;14.74;46.53
70198;BME280;57582;-34.876;138.628;2023-09-07T06:52:30;100407;;;14.56;46.65
70198;BME280;57582;-34.876;138.628;2023-09-07T06:55:30;100415;;;14.37;47.57
70198;BME280;57582;-34.876;138.628;2023-09-07T06:58:31;100402;;;14.29;47.08
70198;BME280;57582;-34.876;138.628;2023-09-07T07:01:30;100402;;;14.45;46.87
70198;BME280;57582;-34.876;138.628;2023-09-07T07:04:30;100408;;;14.50;46.20
70198;BME280;57582;-34.876;138.628;2023-09-07T07:07:30;100402;;;14.63;45.79
70198;BME280;57582;-34.876;138.628;2023-09-07T07:10:31;100417;;;14.41;45.59
70198;BME280;57582;-34.876;138.628;2023-09-07T07:13:30;100421;;;14.60;45.63
70198;BME280;57582;-34.876;138.628;2023-09-07T07:16:30;100424;;;14.50;45.06
70198;BME280;57582;-34.876;138.628;2023-09-07T07:19:31;100420;;;14.20;44.17
70198;BME280;57582;-34.876;138.628;2023-09-07T07:22:31;100429;;;14.18;44.15
70198;BME280;57582;-34.876;138.628;2023-09-07T07:25:30;100430;;;14.00;45.25
70198;BME280;57582;-34.876;138.628;2023-09-07T07:28:30;100431;;;13.88;44.95
70198;BME280;57582;-34.876;138.628;2023-09-07T07:31:30;100453;;;13.88;43.33
70198;BME280;57582;-34.876;138.628;2023-09-07T07:34:31;100449;;;13.79;41.81
70198;BME280;57582;-34.876;138.628;2023-09-07T07:37:30;100443;;;13.82;41.28
70198;BME280;57582;-34.876;138.628;2023-09-07T07:40:30;100456;;;13.93;41.65
70198;BME280;57582;-34.876;138.628;2023-09-07T07:43:31;100465;;;13.98;42.28
70198;BME280;57582;-34.876;138.628;2023-09-07T07:46:31;100458;;;13.88;43.17
70198;BME280;57582;-34.876;138.628;2023-09-07T07:49:30;100471;;;13.76;44.08
70198;BME280;57582;-34.876;138.628;2023-09-07T07:52:30;100463;;;13.71;44.11
70198;BME280;57582;-34.876;138.628;2023-09-07T07:55:30;100474;;;13.60;44.36
70198;BME280;57582;-34.876;138.628;2023-09-07T07:58:31;100468;;;13.41;43.21
70198;BME280;57582;-34.876;138.628;2023-09-07T08:01:30;100471;;;13.17;42.83
70198;BME280;57582;-34.876;138.628;2023-09-07T08:04:30;100480;;;13.13;42.39
70198;BME280;57582;-34.876;138.628;2023-09-07T08:07:30;100476;;;13.11;42.82
70198;BME280;57582;-34.876;138.628;2023-09-07T08:10:34;100491;;;13.21;45.09
70198;BME280;57582;-34.876;138.628;2023-09-07T08:13:30;100497;;;13.20;46.20
70198;BME280;57582;-34.876;138.628;2023-09-07T08:16:30;100513;;;13.36;45.54
70198;BME280;57582;-34.876;138.628;2023-09-07T08:19:30;100512;;;13.09;43.91
70198;BME280;57582;-34.876;138.628;2023-09-07T08:22:31;100513;;;12.90;43.59
70198;BME280;57582;-34.876;138.628;2023-09-07T08:25:30;100501;;;12.88;43.71
70198;BME280;57582;-34.876;138.628;2023-09-07T08:28:30;100518;;;12.81;43.86
70198;BME280;57582;-34.876;138.628;2023-09-07T08:31:31;100528;;;12.93;44.23
70198;BME280;57582;-34.876;138.628;2023-09-07T08:34:31;100524;;;12.75;45.44
70198;BME280;57582;-34.876;138.628;2023-09-07T08:37:30;100532;;;12.71;46.15
70198;BME280;57582;-34.876;138.628;2023-09-07T08:40:30;100539;;;12.61;45.96
70198;BME280;57582;-34.876;138.628;2023-09-07T08:43:32;100539;;;12.33;47.26
70198;BME280;57582;-34.876;138.628;2023-09-07T08:46:31;100552;;;12.33;48.30
70198;BME280;57582;-34.876;138.628;2023-09-07T08:49:30;100553;;;12.33;49.65
70198;BME280;57582;-34.876;138.628;2023-09-07T08:52:30;100561;;;12.46;50.60
70198;BME280;57582;-34.876;138.628;2023-09-07T08:55:30;100558;;;12.59;51.20
70198;BME280;57582;-34.876;138.628;2023-09-07T08:58:31;100569;;;12.61;49.69
70198;BME280;57582;-34.876;138.628;2023-09-07T09:01:30;100577;;;12.80;47.82
70198;BME280;57582;-34.876;138.628;2023-09-07T09:04:30;100581;;;12.70;45.85
70198;BME280;57582;-34.876;138.628;2023-09-07T09:07:30;100580;;;12.58;46.29
70198;BME280;57582;-34.876;138.628;2023-09-07T09:10:31;100590;;;12.56;47.34
70198;BME280;57582;-34.876;138.628;2023-09-07T09:13:30;100591;;;12.50;47.73
70198;BME280;57582;-34.876;138.628;2023-09-07T09:16:30;100598;;;12.64;47.88
70198;BME280;57582;-34.876;138.628;2023-09-07T09:19:31;100601;;;12.72;48.51
70198;BME280;57582;-34.876;138.628;2023-09-07T09:22:31;100617;;;12.69;48.49
70198;BME280;57582;-34.876;138.628;2023-09-07T09:25:30;100600;;;12.54;48.49
70198;BME280;57582;-34.876;138.628;2023-09-07T09:28:31;100608;;;12.49;49.37
70198;BME280;57582;-34.876;138.628;2023-09-07T09:31:30;100611;;;12.47;52.21
70198;BME280;57582;-34.876;138.628;2023-09-07T09:34:38;100630;;;12.38;55.08
70198;BME280;57582;-34.876;138.628;2023-09-07T09:37:30;100630;;;12.54;56.91
70198;BME280;57582;-34.876;138.628;2023-09-07T09:40:31;100638;;;12.58;56.83
70198;BME280;57582;-34.876;138.628;2023-09-07T09:43:30;100658;;;12.25;54.08
70198;BME280;57582;-34.876;138.628;2023-09-07T09:46:31;100668;;;12.15;53.41
70198;BME280;57582;-34.876;138.628;2023-09-07T09:49:30;100677;;;12.28;53.25
70198;BME280;57582;-34.876;138.628;2023-09-07T09:52:30;100679;;;12.18;53.53
70198;BME280;57582;-34.876;138.628;2023-09-07T09:55:30;100689;;;12.05;53.10
70198;BME280;57582;-34.876;138.628;2023-09-07T09:58:31;100691;;;11.90;54.06
70198;BME280;57582;-34.876;138.628;2023-09-07T10:01:36;100712;;;11.75;55.85
70198;BME280;57582;-34.876;138.628;2023-09-07T10:04:30;100709;;;11.46;57.85
70198;BME280;57582;-34.876;138.628;2023-09-07T10:10:33;100717;;;11.17;59.28
70198;BME280;57582;-34.876;138.628;2023-09-07T10:13:32;100714;;;11.33;58.96
70198;BME280;57582;-34.876;138.628;2023-09-07T10:16:47;100723;;;11.48;58.83
70198;BME280;57582;-34.876;138.628;2023-09-07T10:19:30;100729;;;11.56;59.34
70198;BME280;57582;-34.876;138.628;2023-09-07T10:22:31;100730;;;11.20;60.64
70198;BME280;57582;-34.876;138.628;2023-09-07T10:25:30;100729;;;11.00;61.96
70198;BME280;57582;-34.876;138.628;2023-09-07T10:28:30;100736;;;11.01;62.29
70198;BME280;57582;-34.876;138.628;2023-09-07T10:31:31;100740;;;11.09;62.43
70198;BME280;57582;-34.876;138.628;2023-09-07T10:34:35;100741;;;11.12;62.67
70198;BME280;57582;-34.876;138.628;2023-09-07T10:37:30;100749;;;11.21;63.21
70198;BME280;57582;-34.876;138.628;2023-09-07T10:40:30;100770;;;11.28;65.26
70198;BME280;57582;-34.876;138.628;2023-09-07T10:43:31;100762;;;11.20;66.33
70198;BME280;57582;-34.876;138.628;2023-09-07T10:46:31;100764;;;11.18;67.40
70198;BME280;57582;-34.876;138.628;2023-09-07T10:49:30;100774;;;11.16;68.89
70198;BME280;57582;-34.876;138.628;2023-09-07T10:52:31;100770;;;11.12;69.66
70198;BME280;57582;-34.876;138.628;2023-09-07T10:55:35;100767;;;11.34;69.44
70198;BME280;57582;-34.876;138.628;2023-09-07T10:58:32;100754;;;11.28;69.53
70198;BME280;57582;-34.876;138.628;2023-09-07T11:01:31;100747;;;11.43;69.93
70198;BME280;57582;-34.876;138.628;2023-09-07T11:04:31;100749;;;11.54;70.15
70198;BME280;57582;-34.876;138.628;2023-09-07T11:07:31;100748;;;11.30;71.00
70198;BME280;57582;-34.876;138.628;2023-09-07T11:10:33;100743;;;11.31;71.15
70198;BME280;57582;-34.876;138.628;2023-09-07T11:13:31;100753;;;11.27;71.32
70198;BME280;57582;-34.876;138.628;2023-09-07T11:16:32;100750;;;11.35;71.19
70198;BME280;57582;-34.876;138.628;2023-09-07T11:19:32;100755;;;11.45;71.27
70198;BME280;57582;-34.876;138.628;2023-09-07T11:22:32;100768;;;11.20;69.51
70198;BME280;57582;-34.876;138.628;2023-09-07T11:25:34;100780;;;11.38;68.93
70198;BME280;57582;-34.876;138.628;2023-09-07T11:28:31;100780;;;11.11;70.53
70198;BME280;57582;-34.876;138.628;2023-09-07T11:31:31;100803;;;10.78;72.32
70198;BME280;57582;-34.876;138.628;2023-09-07T11:34:31;100817;;;10.53;72.80
70198;BME280;57582;-34.876;138.628;2023-09-07T11:37:31;100811;;;10.35;72.73
70198;BME280;57582;-34.876;138.628;2023-09-07T11:40:31;100793;;;10.17;72.12
70198;BME280;57582;-34.876;138.628;2023-09-07T11:43:31;100811;;;10.31;72.20
70198;BME280;57582;-34.876;138.628;2023-09-07T11:46:31;100821;;;10.28;71.56
70198;BME280;57582;-34.876;138.628;2023-09-07T11:49:31;100828;;;10.40;72.30
70198;BME280;57582;-34.876;138.628;2023-09-07T11:52:31;100823;;;10.51;71.65
70198;BME280;57582;-34.876;138.628;2023-09-07T11:55:31;100816;;;10.52;70.63
70198;BME280;57582;-34.876;138.628;2023-09-07T11:58:31;100826;;;10.76;70.03
70198;BME280;57582;-34.876;138.628;2023-09-07T12:01:31;100829;;;10.63;67.65
70198;BME280;57582;-34.876;138.628;2023-09-07T12:04:31;100825;;;10.62;66.64
70198;BME280;57582;-34.876;138.628;2023-09-07T12:07:31;100828;;;10.58;66.86
70198;BME280;57582;-34.876;138.628;2023-09-07T12:10:31;100819;;;10.74;66.87
70198;BME280;57582;-34.876;138.628;2023-09-07T12:13:31;100826;;;10.81;66.19
70198;BME280;57582;-34.876;138.628;2023-09-07T12:16:31;100817;;;10.94;65.66
70198;BME280;57582;-34.876;138.628;2023-09-07T12:19:31;100815;;;10.93;63.56
70198;BME280;57582;-34.876;138.628;2023-09-07T12:22:31;100825;;;10.91;64.20
70198;BME280;57582;-34.876;138.628;2023-09-07T12:25:31;100825;;;11.10;65.69
70198;BME280;57582;-34.876;138.628;2023-09-07T12:28:31;100821;;;11.42;64.77
70198;BME280;57582;-34.876;138.628;2023-09-07T12:31:31;100808;;;11.62;64.08
70198;BME280;57582;-34.876;138.628;2023-09-07T12:34:31;100809;;;11.93;63.32
70198;BME280;57582;-34.876;138.628;2023-09-07T12:37:31;100827;;;12.07;62.01
70198;BME280;57582;-34.876;138.628;2023-09-07T12:40:31;100831;;;12.22;61.59
70198;BME280;57582;-34.876;138.628;2023-09-07T12:43:31;100833;;;12.07;59.46
70198;BME280;57582;-34.876;138.628;2023-09-07T12:46:32;100823;;;11.95;60.60
70198;BME280;57582;-34.876;138.628;2023-09-07T12:49:31;100827;;;12.04;60.56
70198;BME280;57582;-34.876;138.628;2023-09-07T12:52:31;100832;;;11.97;59.98
70198;BME280;57582;-34.876;138.628;2023-09-07T12:55:31;100849;;;12.18;59.95
70198;BME280;57582;-34.876;138.628;2023-09-07T12:58:31;100851;;;11.87;62.19
70198;BME280;57582;-34.876;138.628;2023-09-07T13:01:31;100854;;;11.59;63.63
70198;BME280;57582;-34.876;138.628;2023-09-07T13:04:31;100851;;;11.76;63.88
70198;BME280;57582;-34.876;138.628;2023-09-07T13:07:31;100860;;;11.74;64.30
70198;BME280;57582;-34.876;138.628;2023-09-07T13:10:32;100864;;;11.37;64.38
70198;BME280;57582;-34.876;138.628;2023-09-07T13:13:31;100859;;;11.39;62.91
70198;BME280;57582;-34.876;138.628;2023-09-07T13:16:31;100857;;;11.31;62.14
70198;BME280;57582;-34.876;138.628;2023-09-07T13:19:31;100885;;;11.22;61.66
70198;BME280;57582;-34.876;138.628;2023-09-07T13:22:31;100882;;;11.32;61.65
70198;BME280;57582;-34.876;138.628;2023-09-07T13:25:31;100898;;;11.36;61.59
70198;BME280;57582;-34.876;138.628;2023-09-07T13:28:31;100887;;;11.24;60.88
70198;BME280;57582;-34.876;138.628;2023-09-07T13:31:31;100880;;;11.21;60.15
70198;BME280;57582;-34.876;138.628;2023-09-07T13:34:31;100920;;;11.14;59.23
70198;BME280;57582;-34.876;138.628;2023-09-07T13:37:31;100909;;;11.17;59.80
70198;BME280;57582;-34.876;138.628;2023-09-07T13:40:31;100912;;;11.21;59.66
70198;BME280;57582;-34.876;138.628;2023-09-07T13:43:31;100910;;;11.18;59.00
70198;BME280;57582;-34.876;138.628;2023-09-07T13:46:32;100924;;;11.25;59.16
70198;BME280;57582;-34.876;138.628;2023-09-07T13:49:31;100921;;;11.34;59.14
70198;BME280;57582;-34.876;138.628;2023-09-07T13:52:31;100918;;;11.42;58.25
70198;BME280;57582;-34.876;138.628;2023-09-07T13:55:31;100934;;;11.32;57.94
70198;BME280;57582;-34.876;138.628;2023-09-07T13:58:31;100943;;;11.34;58.46
70198;BME280;57582;-34.876;138.628;2023-09-07T14:01:31;100938;;;11.48;57.42
70198;BME280;57582;-34.876;138.628;2023-09-07T14:04:31;100938;;;11.25;56.81
70198;BME280;57582;-34.876;138.628;2023-09-07T14:07:31;100949;;;11.32;56.62
70198;BME280;57582;-34.876;138.628;2023-09-07T14:10:31;100956;;;11.32;56.30
70198;BME280;57582;-34.876;138.628;2023-09-07T14:13:31;100948;;;11.29;56.59
70198;BME280;57582;-34.876;138.628;2023-09-07T14:16:31;100949;;;11.17;55.35
70198;BME280;57582;-34.876;138.628;2023-09-07T14:19:31;100963;;;11.27;54.37
70198;BME280;57582;-34.876;138.628;2023-09-07T14:22:31;100951;;;11.30;53.96
70198;BME280;57582;-34.876;138.628;2023-09-07T14:25:31;100971;;;11.32;53.29
70198;BME280;57582;-34.876;138.628;2023-09-07T14:28:31;100975;;;11.31;53.26
70198;BME280;57582;-34.876;138.628;2023-09-07T14:31:31;100981;;;11.28;53.18
70198;BME280;57582;-34.876;138.628;2023-09-07T14:34:31;100984;;;11.42;53.31
70198;BME280;57582;-34.876;138.628;2023-09-07T14:37:31;100993;;;11.26;53.40
70198;BME280;57582;-34.876;138.628;2023-09-07T14:40:31;100985;;;11.31;53.28
70198;BME280;57582;-34.876;138.628;2023-09-07T14:43:31;101002;;;11.31;53.81
70198;BME280;57582;-34.876;138.628;2023-09-07T14:46:31;101012;;;11.34;53.81
70198;BME280;57582;-34.876;138.628;2023-09-07T14:49:31;101021;;;11.37;53.44
70198;BME280;57582;-34.876;138.628;2023-09-07T14:52:31;101011;;;11.38;53.37
70198;BME280;57582;-34.876;138.628;2023-09-07T14:55:31;101021;;;11.46;53.11
70198;BME280;57582;-34.876;138.628;2023-09-07T14:58:32;101027;;;11.27;52.32
70198;BME280;57582;-34.876;138.628;2023-09-07T15:01:31;101019;;;11.32;52.94
70198;BME280;57582;-34.876;138.628;2023-09-07T15:04:31;101034;;;11.26;52.05
70198;BME280;57582;-34.876;138.628;2023-09-07T15:07:31;101036;;;11.34;52.42
70198;BME280;57582;-34.876;138.628;2023-09-07T15:10:32;101051;;;11.46;52.32
70198;BME280;57582;-34.876;138.628;2023-09-07T15:13:31;101046;;;11.42;52.37
70198;BME280;57582;-34.876;138.628;2023-09-07T15:16:31;101053;;;11.43;52.23
70198;BME280;57582;-34.876;138.628;2023-09-07T15:19:31;101056;;;11.38;52.34
70198;BME280;57582;-34.876;138.628;2023-09-07T15:22:31;101063;;;11.31;52.02
70198;BME280;57582;-34.876;138.628;2023-09-07T15:25:31;101075;;;11.30;52.92
70198;BME280;57582;-34.876;138.628;2023-09-07T15:28:31;101075;;;11.31;52.86
70198;BME280;57582;-34.876;138.628;2023-09-07T15:31:32;101072;;;11.28;52.73
70198;BME280;57582;-34.876;138.628;2023-09-07T15:34:32;101092;;;11.24;52.91
70198;BME280;57582;-34.876;138.628;2023-09-07T15:37:31;101092;;;11.21;52.69
70198;BME280;57582;-34.876;138.628;2023-09-07T15:40:31;101094;;;11.16;52.41
70198;BME280;57582;-34.876;138.628;2023-09-07T15:43:32;101099;;;11.08;52.43